createdAt,value
2023-05-21T00:00:43.163Z,66.65
2023-05-21T00:03:14.045Z,67.13
2023-05-21T00:05:40.986Z,67.20
2023-05-21T00:08:07.540Z,67.25
2023-05-21T00:10:34.281Z,67.30
2023-05-21T00:13:00.845Z,67.34
2023-05-21T00:15:27.650Z,67.45
2023-05-21T00:17:54.380Z,67.74
2023-05-21T00:20:20.932Z,68.00
2023-05-21T00:22:48.249Z,67.89
2023-05-21T00:25:15.180Z,68.55
2023-05-21T00:27:41.787Z,68.72
2023-05-21T00:30:08.645Z,68.98
2023-05-21T00:32:35.133Z,68.94
2023-05-21T00:35:01.714Z,69.16
2023-05-21T00:37:32.769Z,69.50
2023-05-21T00:39:59.244Z,69.91
2023-05-21T00:42:27.275Z,70.15
2023-05-21T00:44:54.295Z,70.38
2023-05-21T00:47:22.013Z,70.54
2023-05-21T00:49:51.412Z,70.60
2023-05-21T00:52:20.277Z,70.51
2023-05-21T00:54:49.630Z,70.54
2023-05-21T00:57:20.681Z,70.63
2023-05-21T00:59:50.760Z,70.57
2023-05-21T01:02:20.522Z,70.27
2023-05-21T01:04:47.206Z,70.45
2023-05-21T01:07:14.588Z,70.38
2023-05-21T01:09:42.399Z,70.48
2023-05-21T01:12:10.299Z,70.58
2023-05-21T01:14:38.461Z,70.56
2023-05-21T01:17:06.383Z,70.61
2023-05-21T01:19:35.556Z,70.56
2023-05-21T01:22:07.250Z,71.00
2023-05-21T01:24:34.570Z,70.82
2023-05-21T01:27:02.334Z,70.77
2023-05-21T01:29:28.926Z,70.89
2023-05-21T01:32:12.746Z,71.40
2023-05-21T01:34:47.106Z,71.46
2023-05-21T01:37:39.506Z,71.25
2023-05-21T01:40:14.536Z,71.29
2023-05-21T01:42:44.340Z,70.97
2023-05-21T01:45:14.051Z,70.90
2023-05-21T01:47:41.936Z,70.86
2023-05-21T01:50:09.439Z,71.13
2023-05-21T01:52:36.287Z,71.25
2023-05-21T01:55:03.593Z,71.05
2023-05-21T01:57:30.060Z,71.47
2023-05-21T01:59:57.863Z,71.34
2023-05-21T02:02:24.593Z,71.52
2023-05-21T02:04:51.513Z,71.72
2023-05-21T02:07:18.786Z,72.32
2023-05-21T02:09:45.308Z,72.34
2023-05-21T02:12:12.112Z,72.48
2023-05-21T02:14:38.848Z,72.44
2023-05-21T02:17:05.769Z,72.58
2023-05-21T02:19:32.231Z,72.86
2023-05-21T02:21:58.759Z,73.08
2023-05-21T02:24:25.381Z,73.26
2023-05-21T02:26:52.405Z,73.22
2023-05-21T02:29:19.518Z,73.59
2023-05-21T02:31:46.176Z,73.71
2023-05-21T02:34:12.777Z,73.99
2023-05-21T02:36:41.468Z,73.93
2023-05-21T02:39:08.211Z,73.92
2023-05-21T02:41:34.783Z,74.07
2023-05-21T02:44:01.250Z,74.00
2023-05-21T02:46:33.707Z,74.79
2023-05-21T02:49:00.183Z,74.06
2023-05-21T02:51:26.652Z,74.31
2023-05-21T02:53:53.139Z,74.36
2023-05-21T02:56:19.958Z,74.46
2023-05-21T02:58:46.715Z,74.72
2023-05-21T03:01:13.197Z,74.97
2023-05-21T03:03:39.807Z,75.48
2023-05-21T03:06:06.560Z,75.14
2023-05-21T03:08:33.073Z,75.49
2023-05-21T03:10:59.788Z,75.73
2023-05-21T03:13:26.285Z,75.95
2023-05-21T03:15:56.237Z,76.15
2023-05-21T03:18:23.425Z,76.02
2023-05-21T03:20:50.001Z,76.23
2023-05-21T03:23:19.640Z,76.40
2023-05-21T03:25:46.267Z,76.22
2023-05-21T03:28:12.819Z,76.19
2023-05-21T03:30:39.510Z,76.46
2023-05-21T03:33:06.460Z,76.40
2023-05-21T03:35:33.120Z,76.28
2023-05-21T03:37:59.789Z,76.50
2023-05-21T03:40:26.319Z,76.41
2023-05-21T03:42:52.812Z,76.53
2023-05-21T03:45:19.240Z,76.78
2023-05-21T03:47:45.721Z,76.92
2023-05-21T03:50:12.464Z,76.74
2023-05-21T03:52:39.022Z,77.36
2023-05-21T03:55:06.646Z,77.30
2023-05-21T03:57:33.102Z,77.05
2023-05-21T03:59:59.690Z,76.91
2023-05-21T04:02:27.494Z,77.01
2023-05-21T04:04:55.784Z,76.56
2023-05-21T04:07:22.595Z,76.80
2023-05-21T04:09:51.154Z,77.00
2023-05-21T04:12:19.021Z,77.27
2023-05-21T04:14:46.280Z,77.17
2023-05-21T04:17:13.016Z,77.41
2023-05-21T04:19:39.745Z,77.43
2023-05-21T04:22:06.271Z,77.49
2023-05-21T04:24:32.777Z,77.24
2023-05-21T04:27:01.406Z,77.21
2023-05-21T04:29:29.838Z,77.10
2023-05-21T04:31:56.536Z,76.66
2023-05-21T04:34:23.366Z,76.30
2023-05-21T04:36:49.831Z,75.86
2023-05-21T04:39:17.072Z,75.63
2023-05-21T04:41:44.276Z,75.43
2023-05-21T04:44:14.980Z,75.28
2023-05-21T04:46:42.135Z,75.20
2023-05-21T04:49:10.362Z,74.84
2023-05-21T04:51:37.793Z,74.24
2023-05-21T04:54:04.475Z,74.31
2023-05-21T04:56:31.876Z,74.37
2023-05-21T04:58:58.961Z,74.15
2023-05-21T05:01:27.283Z,73.55
2023-05-21T05:03:54.104Z,73.02
2023-05-21T05:06:21.402Z,72.54
2023-05-21T05:08:48.025Z,72.41
2023-05-21T05:11:14.549Z,72.17
2023-05-21T05:13:44.202Z,72.23
2023-05-21T05:16:11.330Z,71.57
2023-05-21T05:18:37.821Z,71.07
2023-05-21T05:21:04.255Z,70.96
2023-05-21T05:23:30.902Z,70.63
2023-05-21T05:25:57.432Z,70.29
2023-05-21T05:28:23.923Z,70.17
2023-05-21T05:30:50.445Z,70.04
2023-05-21T05:33:17.130Z,69.88
2023-05-21T05:35:43.559Z,69.84
2023-05-21T05:38:10.639Z,69.65
2023-05-21T05:40:37.151Z,69.56
2023-05-21T05:43:03.672Z,69.33
2023-05-21T05:45:30.361Z,69.56
2023-05-21T05:47:57.030Z,68.65
2023-05-21T05:50:23.521Z,68.56
2023-05-21T05:52:50.019Z,68.16
2023-05-21T05:55:16.772Z,67.67
2023-05-21T05:57:44.970Z,67.32
2023-05-21T06:00:12.483Z,67.00
2023-05-21T06:02:39.055Z,66.80
2023-05-21T06:05:07.025Z,66.11
2023-05-21T06:07:33.567Z,65.89
2023-05-21T06:10:00.035Z,65.51
2023-05-21T06:12:26.544Z,65.15
2023-05-21T06:14:52.997Z,65.71
2023-05-21T06:17:19.479Z,66.05
2023-05-21T06:19:45.932Z,66.02
2023-05-21T06:22:12.457Z,66.11
2023-05-21T06:24:39.190Z,65.61
2023-05-21T06:27:06.033Z,65.36
2023-05-21T06:29:32.501Z,65.57
2023-05-21T06:31:58.946Z,64.87
2023-05-21T06:34:25.987Z,64.71
2023-05-21T06:36:52.451Z,63.23
2023-05-21T06:39:18.992Z,62.35
2023-05-21T06:41:45.492Z,62.55
2023-05-21T06:44:12.136Z,61.54
2023-05-21T06:46:38.594Z,61.37
2023-05-21T06:49:07.019Z,61.00
2023-05-21T06:51:34.120Z,60.71
2023-05-21T06:54:00.795Z,61.02
2023-05-21T06:56:27.394Z,60.83
2023-05-21T06:58:54.515Z,61.14
2023-05-21T07:01:22.384Z,60.80
2023-05-21T07:03:49.463Z,60.33
2023-05-21T07:06:16.940Z,60.34
2023-05-21T07:08:43.607Z,59.53
2023-05-21T07:11:10.103Z,59.51
2023-05-21T07:13:36.946Z,59.30
2023-05-21T07:16:03.549Z,58.60
2023-05-21T07:18:30.129Z,59.62
2023-05-21T07:20:57.168Z,59.17
2023-05-21T07:23:23.763Z,58.48
2023-05-21T07:25:50.741Z,57.99
2023-05-21T07:28:17.362Z,57.88
2023-05-21T07:30:43.900Z,57.18
2023-05-21T07:33:10.600Z,57.58
2023-05-21T07:35:37.453Z,57.24
2023-05-21T07:38:04.181Z,56.95
2023-05-21T07:40:30.676Z,56.80
2023-05-21T07:42:57.256Z,57.16
2023-05-21T07:45:23.765Z,56.67
2023-05-21T07:47:50.393Z,56.94
2023-05-21T07:50:17.343Z,57.13
2023-05-21T07:52:43.934Z,56.14
2023-05-21T07:55:11.161Z,56.36
2023-05-21T07:57:37.762Z,55.94
2023-05-21T08:00:07.395Z,56.31
2023-05-21T08:02:33.890Z,55.89
2023-05-21T08:05:01.790Z,54.91
2023-05-21T08:07:28.702Z,55.26
2023-05-21T08:09:55.263Z,54.62
2023-05-21T08:12:21.717Z,54.43
2023-05-21T08:14:48.227Z,54.80
2023-05-21T08:17:22.248Z,53.90
2023-05-21T08:19:48.963Z,52.84
2023-05-21T08:22:15.675Z,53.42
2023-05-21T08:24:42.278Z,54.43
2023-05-21T08:27:08.943Z,52.96
2023-05-21T08:29:35.531Z,52.90
2023-05-21T08:32:02.031Z,52.56
2023-05-21T08:34:28.880Z,53.43
2023-05-21T08:36:55.475Z,52.91
2023-05-21T08:39:21.978Z,52.84
2023-05-21T08:41:53.789Z,52.41
2023-05-21T08:44:21.786Z,52.96
2023-05-21T08:46:53.265Z,52.13
2023-05-21T08:49:27.504Z,52.12
2023-05-21T08:51:55.662Z,52.90
2023-05-21T08:54:22.909Z,52.99
2023-05-21T08:56:49.857Z,53.11
2023-05-21T08:59:18.181Z,52.92
2023-05-21T09:01:46.167Z,51.94
2023-05-21T09:04:20.810Z,52.41
2023-05-21T09:06:48.228Z,52.54
2023-05-21T09:09:26.063Z,52.85
2023-05-21T09:11:53.064Z,52.05
2023-05-21T09:14:21.098Z,52.32
2023-05-21T09:16:50.159Z,52.25
2023-05-21T09:19:16.708Z,51.57
2023-05-21T09:21:43.716Z,51.91
2023-05-21T09:24:11.103Z,52.08
2023-05-21T09:26:37.846Z,51.34
2023-05-21T09:29:04.420Z,52.03
2023-05-21T09:31:31.143Z,52.35
2023-05-21T09:33:57.671Z,51.75
2023-05-21T09:36:24.560Z,51.15
2023-05-21T09:38:52.036Z,52.51
2023-05-21T09:41:21.872Z,52.02
2023-05-21T09:43:49.051Z,52.24
2023-05-21T09:46:15.513Z,52.66
2023-05-21T09:48:43.344Z,52.12
2023-05-21T09:51:20.535Z,52.24
2023-05-21T09:53:54.756Z,52.37
2023-05-21T09:56:26.140Z,52.09
2023-05-21T09:58:54.773Z,50.90
2023-05-21T10:01:21.582Z,50.08
2023-05-21T10:03:53.920Z,49.78
2023-05-21T10:06:21.086Z,48.96
2023-05-21T10:08:50.941Z,50.76
2023-05-21T10:11:18.475Z,48.76
2023-05-21T10:13:48.886Z,49.37
2023-05-21T10:16:15.895Z,47.63
2023-05-21T10:18:43.904Z,47.02
2023-05-21T10:21:10.695Z,47.33
2023-05-21T10:23:38.576Z,46.58
2023-05-21T10:26:07.007Z,45.69
2023-05-21T10:28:34.054Z,46.12
2023-05-21T10:31:01.163Z,46.16
2023-05-21T10:33:29.390Z,46.00
2023-05-21T10:35:58.804Z,45.75
2023-05-21T10:38:25.742Z,44.44
2023-05-21T10:40:53.685Z,45.54
2023-05-21T10:43:48.103Z,45.01
2023-05-21T10:46:34.846Z,43.91
2023-05-21T10:49:18.671Z,43.36
2023-05-21T10:52:06.831Z,44.08
2023-05-21T10:55:02.009Z,44.48
2023-05-21T10:57:34.286Z,43.15
2023-05-21T11:00:03.609Z,42.31
2023-05-21T11:02:30.377Z,42.09
2023-05-21T11:05:01.740Z,41.28
2023-05-21T11:07:52.149Z,41.36
2023-05-21T11:10:38.724Z,41.29
2023-05-21T11:13:12.244Z,41.70
2023-05-21T11:15:57.168Z,41.76
2023-05-21T11:18:24.458Z,40.51
2023-05-21T11:20:51.616Z,40.74
2023-05-21T11:23:23.182Z,41.04
2023-05-21T11:26:02.208Z,41.70
2023-05-21T11:28:33.840Z,41.40
2023-05-21T11:31:25.860Z,41.58
2023-05-21T11:34:11.119Z,41.43
2023-05-21T11:36:38.668Z,40.12
2023-05-21T11:39:13.417Z,40.04
2023-05-21T11:42:01.601Z,40.49
2023-05-21T11:44:41.646Z,40.73
2023-05-21T11:47:10.608Z,39.36
2023-05-21T11:49:37.965Z,39.31
2023-05-21T11:52:06.239Z,40.03
2023-05-21T11:54:36.896Z,39.64
2023-05-21T11:57:09.946Z,39.56
2023-05-21T11:59:36.960Z,40.17
2023-05-21T12:02:04.864Z,40.63
2023-05-21T12:04:32.829Z,40.61
2023-05-21T12:06:59.276Z,40.17
2023-05-21T12:09:26.119Z,40.78
2023-05-21T12:11:53.244Z,39.85
2023-05-21T12:14:21.620Z,39.64
2023-05-21T12:16:48.306Z,40.30
2023-05-21T12:19:17.770Z,40.39
2023-05-21T12:21:44.241Z,39.64
2023-05-21T12:24:10.965Z,40.13
2023-05-21T12:26:37.584Z,40.13
2023-05-21T12:29:04.809Z,39.85
2023-05-21T12:31:32.859Z,39.89
2023-05-21T12:33:59.693Z,40.57
2023-05-21T12:36:32.167Z,40.59
2023-05-21T12:38:58.726Z,40.03
2023-05-21T12:41:26.512Z,40.04
2023-05-21T12:43:53.194Z,40.16
2023-05-21T12:46:20.799Z,40.15
2023-05-21T12:48:53.429Z,40.21
2023-05-21T12:51:20.460Z,40.22
2023-05-21T12:53:47.210Z,38.82
2023-05-21T12:56:15.702Z,38.75
2023-05-21T12:58:43.053Z,39.79
2023-05-21T13:01:11.351Z,39.42
2023-05-21T13:03:41.366Z,38.52
2023-05-21T13:06:09.128Z,39.98
2023-05-21T13:08:35.730Z,38.83
2023-05-21T13:11:03.431Z,38.28
2023-05-21T13:13:30.624Z,38.72
2023-05-21T13:15:57.329Z,38.62
2023-05-21T13:18:24.083Z,39.03
2023-05-21T13:20:51.681Z,38.99
2023-05-21T13:23:18.172Z,38.83
2023-05-21T13:25:44.806Z,38.86
2023-05-21T13:28:14.959Z,38.08
2023-05-21T13:30:41.626Z,38.50
2023-05-21T13:33:08.271Z,39.36
2023-05-21T13:35:35.246Z,38.49
2023-05-21T13:38:02.054Z,37.89
2023-05-21T13:40:28.577Z,38.23
2023-05-21T13:42:55.085Z,38.32
2023-05-21T13:45:21.667Z,38.58
2023-05-21T13:47:48.912Z,37.65
2023-05-21T13:50:16.182Z,38.06
2023-05-21T13:52:42.838Z,38.05
2023-05-21T13:55:09.988Z,37.21
2023-05-21T13:57:36.442Z,37.99
2023-05-21T14:00:03.949Z,38.35
2023-05-21T14:02:30.588Z,37.71
2023-05-21T14:04:57.725Z,37.96
2023-05-21T14:07:24.169Z,38.20
2023-05-21T14:09:50.731Z,36.90
2023-05-21T14:12:17.588Z,37.87
2023-05-21T14:14:44.175Z,37.48
2023-05-21T14:17:11.151Z,38.35
2023-05-21T14:19:37.637Z,37.77
2023-05-21T14:22:04.205Z,38.47
2023-05-21T14:24:30.658Z,37.93
2023-05-21T14:26:57.363Z,37.89
2023-05-21T14:29:23.865Z,37.65
2023-05-21T14:31:50.412Z,38.19
2023-05-21T14:34:16.959Z,36.96
2023-05-21T14:36:43.381Z,36.71
2023-05-21T14:39:09.892Z,36.62
2023-05-21T14:41:39.876Z,37.01
2023-05-21T14:44:06.745Z,37.14
2023-05-21T14:46:33.616Z,37.38
2023-05-21T14:49:00.731Z,37.66
2023-05-21T14:51:27.508Z,38.81
2023-05-21T14:53:55.477Z,38.41
2023-05-21T14:56:23.290Z,38.10
2023-05-21T14:58:49.803Z,38.47
2023-05-21T15:01:16.417Z,38.90
2023-05-21T15:03:43.195Z,38.38
2023-05-21T15:06:09.944Z,38.31
2023-05-21T15:08:36.435Z,38.83
2023-05-21T15:11:02.947Z,38.58
2023-05-21T15:13:29.384Z,39.28
2023-05-21T15:15:56.242Z,39.28
2023-05-21T15:18:24.649Z,39.15
2023-05-21T15:20:51.562Z,39.97
2023-05-21T15:23:18.227Z,40.20
2023-05-21T15:25:45.425Z,39.10
2023-05-21T15:28:12.610Z,39.54
2023-05-21T15:30:39.627Z,39.67
2023-05-21T15:33:06.458Z,40.70
2023-05-21T15:35:33.256Z,40.03
2023-05-21T15:37:59.984Z,40.33
2023-05-21T15:40:27.393Z,40.43
2023-05-21T15:42:54.265Z,41.35
2023-05-21T15:45:20.835Z,41.23
2023-05-21T15:47:47.542Z,41.45
2023-05-21T15:50:14.187Z,41.49
2023-05-21T15:52:42.269Z,41.56
2023-05-21T15:55:09.605Z,42.64
2023-05-21T15:57:36.207Z,42.46
2023-05-21T16:00:03.876Z,42.03
2023-05-21T16:02:30.611Z,42.96
2023-05-21T16:04:57.267Z,43.01
2023-05-21T16:07:24.683Z,43.08
2023-05-21T16:09:51.207Z,42.53
2023-05-21T16:12:17.959Z,42.51
2023-05-21T16:14:44.653Z,42.79
2023-05-21T16:17:11.244Z,41.34
2023-05-21T16:19:39.368Z,42.81
2023-05-21T16:22:06.482Z,42.15
2023-05-21T16:24:33.953Z,41.79
2023-05-21T16:27:00.783Z,41.77
2023-05-21T16:29:27.300Z,42.59
2023-05-21T16:31:53.964Z,41.97
2023-05-21T16:34:20.672Z,43.15
2023-05-21T16:36:47.146Z,41.79
2023-05-21T16:39:13.732Z,41.99
2023-05-21T16:41:40.212Z,43.02
2023-05-21T16:44:07.100Z,42.71
2023-05-21T16:46:33.647Z,42.60
2023-05-21T16:49:00.286Z,43.23
2023-05-21T16:51:26.764Z,43.18
2023-05-21T16:53:53.180Z,43.55
2023-05-21T16:56:19.675Z,43.66
2023-05-21T16:58:48.497Z,43.50
2023-05-21T17:01:15.346Z,43.65
2023-05-21T17:03:43.482Z,44.62
2023-05-21T17:06:10.410Z,44.29
2023-05-21T17:08:36.894Z,44.76
2023-05-21T17:11:03.587Z,45.59
2023-05-21T17:13:30.213Z,46.21
2023-05-21T17:15:56.813Z,46.15
2023-05-21T17:18:23.299Z,46.57
2023-05-21T17:20:50.084Z,46.20
2023-05-21T17:23:16.685Z,46.48
2023-05-21T17:25:43.251Z,46.95
2023-05-21T17:28:09.823Z,47.01
2023-05-21T17:30:36.388Z,47.32
2023-05-21T17:33:03.754Z,47.25
2023-05-21T17:35:30.570Z,47.22
2023-05-21T17:37:57.182Z,47.86
2023-05-21T17:40:24.639Z,47.85
2023-05-21T17:42:52.563Z,48.71
2023-05-21T17:45:19.712Z,48.85
2023-05-21T17:47:46.388Z,48.90
2023-05-21T17:50:13.233Z,49.24
2023-05-21T17:52:39.821Z,49.71
2023-05-21T17:55:07.915Z,49.77
2023-05-21T17:57:35.944Z,50.05
2023-05-21T18:00:05.139Z,50.28
2023-05-21T18:02:31.886Z,50.07
2023-05-21T18:04:58.638Z,50.43
2023-05-21T18:07:25.588Z,50.56
2023-05-21T18:09:52.133Z,50.36
2023-05-21T18:12:18.650Z,50.34
2023-05-21T18:14:47.844Z,51.46
2023-05-21T18:17:14.425Z,50.63
2023-05-21T18:19:41.149Z,51.27
2023-05-21T18:22:07.821Z,51.41
2023-05-21T18:24:34.472Z,51.48
2023-05-21T18:27:01.052Z,51.50
2023-05-21T18:29:27.498Z,52.53
2023-05-21T18:31:54.258Z,52.72
2023-05-21T18:34:21.031Z,53.21
2023-05-21T18:36:48.153Z,53.30
2023-05-21T18:39:14.685Z,54.69
2023-05-21T18:41:41.268Z,54.57
2023-05-21T18:44:07.822Z,54.78
2023-05-21T18:46:34.551Z,55.49
2023-05-21T18:49:01.141Z,56.15
2023-05-21T18:51:27.819Z,56.08
2023-05-21T18:53:54.496Z,56.39
2023-05-21T18:56:21.944Z,57.62
2023-05-21T18:58:48.594Z,57.76
2023-05-21T19:01:15.575Z,58.23
2023-05-21T19:03:42.188Z,58.60
2023-05-21T19:06:08.846Z,58.99
2023-05-21T19:08:35.359Z,59.24
2023-05-21T19:11:02.034Z,59.46
2023-05-21T19:13:29.429Z,59.84
2023-05-21T19:15:57.538Z,60.26
2023-05-21T19:18:30.217Z,60.78
2023-05-21T19:20:57.566Z,60.86
2023-05-21T19:23:24.866Z,61.08
2023-05-21T19:25:51.610Z,61.45
2023-05-21T19:28:18.782Z,61.81
2023-05-21T19:30:46.316Z,61.94
2023-05-21T19:33:13.233Z,62.61
2023-05-21T19:35:41.469Z,62.64
2023-05-21T19:38:10.526Z,62.91
2023-05-21T19:40:37.227Z,63.38
2023-05-21T19:43:04.427Z,63.53
2023-05-21T19:45:30.978Z,63.70
2023-05-21T19:47:59.118Z,64.00
2023-05-21T19:50:28.463Z,64.35
2023-05-21T19:52:57.064Z,64.60
2023-05-21T19:55:24.622Z,65.03
2023-05-21T19:57:51.262Z,65.20
2023-05-21T20:00:18.849Z,65.48
2023-05-21T20:02:45.916Z,65.43
2023-05-21T20:05:12.562Z,65.37
2023-05-21T20:07:39.118Z,65.87
2023-05-21T20:10:06.287Z,66.13
2023-05-21T20:12:32.901Z,66.11
2023-05-21T20:15:01.084Z,66.42
2023-05-21T20:17:28.671Z,66.79
2023-05-21T20:19:57.409Z,66.83
2023-05-21T20:22:23.984Z,66.82
2023-05-21T20:24:50.812Z,66.97
2023-05-21T20:27:19.708Z,67.07
2023-05-21T20:29:46.741Z,67.18
2023-05-21T20:32:13.454Z,67.38
2023-05-21T20:34:54.426Z,67.66
2023-05-21T20:37:29.729Z,67.83
2023-05-21T20:39:57.860Z,68.11
2023-05-21T20:42:35.039Z,68.06
2023-05-21T20:45:02.857Z,68.19
2023-05-21T20:47:29.914Z,68.02
2023-05-21T20:49:57.853Z,68.36
2023-05-21T20:52:24.940Z,68.23
2023-05-21T20:54:54.788Z,68.46
2023-05-21T20:57:26.141Z,68.31
2023-05-21T20:59:53.487Z,68.15
2023-05-21T21:02:20.662Z,68.54
2023-05-21T21:04:48.998Z,68.44
2023-05-21T21:07:18.748Z,68.58
2023-05-21T21:09:46.467Z,68.58
2023-05-21T21:12:24.491Z,68.69
2023-05-21T21:14:52.917Z,68.98
2023-05-21T21:17:19.639Z,69.27
2023-05-21T21:19:46.230Z,69.42
2023-05-21T21:22:12.835Z,69.14
2023-05-21T21:24:39.301Z,69.57
2023-05-21T21:27:06.640Z,69.33
2023-05-21T21:29:33.178Z,69.49
2023-05-21T21:31:59.779Z,69.23
2023-05-21T21:34:26.460Z,69.72
2023-05-21T21:36:54.244Z,69.71
2023-05-21T21:39:20.825Z,69.69
2023-05-21T21:41:47.400Z,69.96
2023-05-21T21:44:13.954Z,70.21
2023-05-21T21:46:40.468Z,70.05
2023-05-21T21:49:06.995Z,70.15
2023-05-21T21:51:34.017Z,70.22
2023-05-21T21:54:00.607Z,70.17
2023-05-21T21:56:27.045Z,70.35
2023-05-21T21:58:53.518Z,70.39
2023-05-21T22:01:20.039Z,70.75
2023-05-21T22:03:46.849Z,70.61
2023-05-21T22:06:13.352Z,70.78
2023-05-21T22:08:39.968Z,71.14
2023-05-21T22:11:06.545Z,70.60
2023-05-21T22:13:34.789Z,70.62
2023-05-21T22:16:02.088Z,70.51
2023-05-21T22:18:40.388Z,70.62
2023-05-21T22:21:09.804Z,70.41
2023-05-21T22:23:37.315Z,70.65
2023-05-21T22:26:03.959Z,70.98
2023-05-21T22:28:30.434Z,70.94
2023-05-21T22:30:57.295Z,70.99
2023-05-21T22:33:23.945Z,71.10
2023-05-21T22:35:50.673Z,71.28
2023-05-21T22:38:17.985Z,71.40
2023-05-21T22:40:44.520Z,71.45
2023-05-21T22:43:11.092Z,71.72
2023-05-21T22:45:38.378Z,71.56
2023-05-21T22:48:08.391Z,71.90
2023-05-21T22:50:35.935Z,71.77
2023-05-21T22:53:02.621Z,72.25
2023-05-21T22:55:29.564Z,72.08
2023-05-21T22:57:56.062Z,72.40
2023-05-21T23:00:22.892Z,72.35
2023-05-21T23:02:51.382Z,72.68
2023-05-21T23:05:19.678Z,72.61
2023-05-21T23:07:46.557Z,73.08
2023-05-21T23:10:13.059Z,73.48
2023-05-21T23:12:40.769Z,73.27
2023-05-21T23:15:10.271Z,73.79
2023-05-21T23:17:37.674Z,73.62
2023-05-21T23:20:05.746Z,74.02
2023-05-21T23:22:32.641Z,73.99
2023-05-21T23:24:59.083Z,74.06
2023-05-21T23:27:25.793Z,73.80
2023-05-21T23:29:52.257Z,74.42
2023-05-21T23:32:18.789Z,74.83
2023-05-21T23:34:45.316Z,74.62
2023-05-21T23:37:12.502Z,74.76
2023-05-21T23:39:39.281Z,74.60
2023-05-21T23:42:06.164Z,74.89
2023-05-21T23:44:33.140Z,75.23
2023-05-21T23:46:59.603Z,75.30
2023-05-21T23:49:26.039Z,75.30
2023-05-21T23:51:52.539Z,75.43
2023-05-21T23:54:19.077Z,75.53
2023-05-21T23:56:46.499Z,75.29
2023-05-21T23:59:13.005Z,75.57
